sensor_id;sensor_type;location;lat;lon;timestamp;pressure;altitude;pressure_sealevel;temperature;humidity
59170;BME280;52474;52.236;5.114;2022-12-13T00:01:20;101369.38;;;-5.49;100.00
59170;BME280;52474;52.236;5.114;2022-12-13T00:03:47;101353.16;;;-5.62;100.00
59170;BME280;52474;52.236;5.114;2022-12-13T00:06:12;101380.63;;;-5.53;100.00
59170;BME280;52474;52.236;5.114;2022-12-13T00:08:39;101375.44;;;-5.53;100.00
59170;BME280;52474;52.236;5.114;2022-12-13T00:11:08;101377.91;;;-5.41;100.00
59170;BME280;52474;52.236;5.114;2022-12-13T00:13:35;101373.56;;;-5.39;100.00
59170;BME280;52474;52.236;5.114;2022-12-13T00:16:03;101371.91;;;-5.45;100.00
59170;BME280;52474;52.236;5.114;2022-12-13T00:18:30;101370.25;;;-5.49;100.00
59170;BME280;52474;52.236;5.114;2022-12-13T00:20:56;101370.25;;;-5.50;100.00
59170;BME280;52474;52.236;5.114;2022-12-13T00:23:22;101369.34;;;-5.46;100.00
59170;BME280;52474;52.236;5.114;2022-12-13T00:25:48;101343.72;;;-5.63;100.00
59170;BME280;52474;52.236;5.114;2022-12-13T00:28:15;101335.09;;;-5.61;100.00
59170;BME280;52474;52.236;5.114;2022-12-13T00:30:41;101365.03;;;-5.46;100.00
59170;BME280;52474;52.236;5.114;2022-12-13T00:33:07;101361.63;;;-5.46;100.00
59170;BME280;52474;52.236;5.114;2022-12-13T00:35:38;101336.84;;;-5.64;100.00
59170;BME280;52474;52.236;5.114;2022-12-13T00:38:08;101350.31;;;-5.36;100.00
59170;BME280;52474;52.236;5.114;2022-12-13T00:40:35;101350.28;;;-5.34;100.00
59170;BME280;52474;52.236;5.114;2022-12-13T00:43:00;101342.63;;;-5.41;100.00
59170;BME280;52474;52.236;5.114;2022-12-13T00:45:26;101351.22;;;-5.42;100.00
59170;BME280;52474;52.236;5.114;2022-12-13T00:47:53;101330.78;;;-5.60;100.00
59170;BME280;52474;52.236;5.114;2022-12-13T00:50:18;101345.34;;;-5.54;100.00
59170;BME280;52474;52.236;5.114;2022-12-13T00:52:44;101345.38;;;-5.59;100.00
59170;BME280;52474;52.236;5.114;2022-12-13T00:55:09;101326.63;;;-5.75;100.00
59170;BME280;52474;52.236;5.114;2022-12-13T00:57:35;101339.31;;;-5.55;100.00
59170;BME280;52474;52.236;5.114;2022-12-13T01:00:01;101336.78;;;-5.59;100.00
59170;BME280;52474;52.236;5.114;2022-12-13T01:02:27;101334.28;;;-5.67;100.00
59170;BME280;52474;52.236;5.114;2022-12-13T01:04:53;101313.81;;;-5.83;100.00
59170;BME280;52474;52.236;5.114;2022-12-13T01:07:18;101332.59;;;-5.70;100.00
59170;BME280;52474;52.236;5.114;2022-12-13T01:09:44;101341.91;;;-5.55;100.00
59170;BME280;52474;52.236;5.114;2022-12-13T01:12:10;101334.25;;;-5.63;100.00
59170;BME280;52474;52.236;5.114;2022-12-13T01:14:38;101344.44;;;-5.49;100.00
59170;BME280;52474;52.236;5.114;2022-12-13T01:17:05;101341.00;;;-5.51;100.00
59170;BME280;52474;52.236;5.114;2022-12-13T01:19:31;101317.97;;;-5.68;100.00
59170;BME280;52474;52.236;5.114;2022-12-13T01:22:02;101338.53;;;-5.58;100.00
59170;BME280;52474;52.236;5.114;2022-12-13T01:24:29;101310.34;;;-5.80;100.00
59170;BME280;52474;52.236;5.114;2022-12-13T01:26:55;101330.88;;;-5.69;100.00
59170;BME280;52474;52.236;5.114;2022-12-13T01:29:21;101327.50;;;-5.74;100.00
59170;BME280;52474;52.236;5.114;2022-12-13T01:31:48;101313.03;;;-5.88;100.00
59170;BME280;52474;52.236;5.114;2022-12-13T01:34:16;101305.41;;;-5.97;100.00
59170;BME280;52474;52.236;5.114;2022-12-13T01:36:44;101334.47;;;-5.84;100.00
59170;BME280;52474;52.236;5.114;2022-12-13T01:39:12;101345.66;;;-5.87;100.00
59170;BME280;52474;52.236;5.114;2022-12-13T01:41:39;101337.19;;;-5.95;100.00
59170;BME280;52474;52.236;5.114;2022-12-13T01:47:08;101341.50;;;-5.97;100.00
59170;BME280;52474;52.236;5.114;2022-12-13T01:49:37;101335.53;;;-6.02;100.00
59170;BME280;52474;52.236;5.114;2022-12-13T01:52:05;101335.56;;;-6.05;100.00
59170;BME280;52474;52.236;5.114;2022-12-13T01:54:36;101345.03;;;-6.09;100.00
59170;BME280;52474;52.236;5.114;2022-12-13T01:57:07;101348.50;;;-6.10;100.00
59170;BME280;52474;52.236;5.114;2022-12-13T01:59:36;101336.44;;;-6.08;100.00
59170;BME280;52474;52.236;5.114;2022-12-13T02:02:03;101341.56;;;-6.06;100.00
59170;BME280;52474;52.236;5.114;2022-12-13T02:04:45;101309.94;;;-6.23;100.00
59170;BME280;52474;52.236;5.114;2022-12-13T02:07:16;101330.53;;;-6.17;100.00
59170;BME280;52474;52.236;5.114;2022-12-13T02:09:44;101333.00;;;-6.07;100.00
59170;BME280;52474;52.236;5.114;2022-12-13T02:12:11;101321.84;;;-6.09;100.00
59170;BME280;52474;52.236;5.114;2022-12-13T02:14:38;101286.00;;;-6.38;100.00
59170;BME280;52474;52.236;5.114;2022-12-13T02:17:31;101336.53;;;-6.17;100.00
59170;BME280;52474;52.236;5.114;2022-12-13T02:20:17;101334.88;;;-6.24;100.00
59170;BME280;52474;52.236;5.114;2022-12-13T02:23:33;101310.06;;;-6.37;100.00
59170;BME280;52474;52.236;5.114;2022-12-13T02:29:09;101331.44;;;-6.28;100.00
59170;BME280;52474;52.236;5.114;2022-12-13T02:34:30;101334.13;;;-6.41;100.00
59170;BME280;52474;52.236;5.114;2022-12-13T02:39:38;101336.72;;;-6.41;100.00
59170;BME280;52474;52.236;5.114;2022-12-13T02:42:13;101310.94;;;-6.43;100.00
59170;BME280;52474;52.236;5.114;2022-12-13T02:44:52;101315.28;;;-6.46;100.00
59170;BME280;52474;52.236;5.114;2022-12-13T02:47:24;101328.19;;;-6.51;100.00
59170;BME280;52474;52.236;5.114;2022-12-13T02:49:57;101325.63;;;-6.53;100.00
59170;BME280;52474;52.236;5.114;2022-12-13T02:52:26;101334.22;;;-6.55;100.00
59170;BME280;52474;52.236;5.114;2022-12-13T02:54:54;101308.56;;;-6.67;100.00
59170;BME280;52474;52.236;5.114;2022-12-13T02:57:36;101326.53;;;-6.58;100.00
59170;BME280;52474;52.236;5.114;2022-12-13T03:00:21;101325.63;;;-6.51;100.00
59170;BME280;52474;52.236;5.114;2022-12-13T03:02:57;101311.88;;;-6.47;100.00
59170;BME280;52474;52.236;5.114;2022-12-13T03:05:48;101306.75;;;-6.55;100.00
59170;BME280;52474;52.236;5.114;2022-12-13T03:11:19;101314.47;;;-6.52;100.00
59170;BME280;52474;52.236;5.114;2022-12-13T03:13:54;101299.13;;;-6.68;100.00
59170;BME280;52474;52.236;5.114;2022-12-13T03:16:40;101311.00;;;-6.51;100.00
59170;BME280;52474;52.236;5.114;2022-12-13T03:19:10;101310.16;;;-6.53;100.00
59170;BME280;52474;52.236;5.114;2022-12-13T03:21:43;101313.63;;;-6.54;100.00
59170;BME280;52474;52.236;5.114;2022-12-13T03:24:10;101307.63;;;-6.56;100.00
59170;BME280;52474;52.236;5.114;2022-12-13T03:26:38;101306.81;;;-6.61;100.00
59170;BME280;52474;52.236;5.114;2022-12-13T03:29:04;101305.97;;;-6.64;100.00
59170;BME280;52474;52.236;5.114;2022-12-13T03:31:31;101315.44;;;-6.70;100.00
59170;BME280;52474;52.236;5.114;2022-12-13T03:33:56;101288.03;;;-6.80;100.00
59170;BME280;52474;52.236;5.114;2022-12-13T03:36:22;101307.69;;;-6.62;100.00
59170;BME280;52474;52.236;5.114;2022-12-13T03:38:49;101308.56;;;-6.64;100.00
59170;BME280;52474;52.236;5.114;2022-12-13T03:41:22;101287.16;;;-6.77;100.00
59170;BME280;52474;52.236;5.114;2022-12-13T03:43:49;101306.81;;;-6.67;100.00
59170;BME280;52474;52.236;5.114;2022-12-13T03:46:15;101310.31;;;-6.71;100.00
59170;BME280;52474;52.236;5.114;2022-12-13T03:48:40;101285.47;;;-6.81;100.00
59170;BME280;52474;52.236;5.114;2022-12-13T03:51:06;101306.00;;;-6.72;100.00
59170;BME280;52474;52.236;5.114;2022-12-13T03:53:32;101300.91;;;-6.78;100.00
59170;BME280;52474;52.236;5.114;2022-12-13T03:55:59;101299.19;;;-6.79;100.00
59170;BME280;52474;52.236;5.114;2022-12-13T03:58:26;101303.47;;;-6.80;100.00
59170;BME280;52474;52.236;5.114;2022-12-13T04:00:51;101282.13;;;-6.97;100.00
59170;BME280;52474;52.236;5.114;2022-12-13T04:03:17;101300.09;;;-6.89;100.00
59170;BME280;52474;52.236;5.114;2022-12-13T04:05:42;101289.84;;;-6.93;100.00
59170;BME280;52474;52.236;5.114;2022-12-13T04:08:08;101287.22;;;-6.89;100.00
59170;BME280;52474;52.236;5.114;2022-12-13T04:10:34;101297.47;;;-6.76;100.00
59170;BME280;52474;52.236;5.114;2022-12-13T04:13:00;101279.47;;;-6.85;100.00
59170;BME280;52474;52.236;5.114;2022-12-13T04:15:44;101270.09;;;-6.92;100.00
59170;BME280;52474;52.236;5.114;2022-12-13T04:18:17;101298.38;;;-6.83;100.00
59170;BME280;52474;52.236;5.114;2022-12-13T04:20:43;101291.44;;;-6.73;100.00
59170;BME280;52474;52.236;5.114;2022-12-13T04:23:09;101252.91;;;-6.90;100.00
59170;BME280;52474;52.236;5.114;2022-12-13T04:25:35;101294.81;;;-6.68;100.00
59170;BME280;52474;52.236;5.114;2022-12-13T04:28:01;101293.97;;;-6.70;100.00
59170;BME280;52474;52.236;5.114;2022-12-13T04:30:26;101283.72;;;-6.78;100.00
59170;BME280;52474;52.236;5.114;2022-12-13T04:32:52;101282.03;;;-6.80;100.00
59170;BME280;52474;52.236;5.114;2022-12-13T04:35:18;101272.59;;;-6.84;100.00
59170;BME280;52474;52.236;5.114;2022-12-13T04:37:44;101298.28;;;-6.69;100.00
59170;BME280;52474;52.236;5.114;2022-12-13T04:40:11;101288.88;;;-6.76;100.00
59170;BME280;52474;52.236;5.114;2022-12-13T04:42:36;101289.72;;;-6.76;100.00
59170;BME280;52474;52.236;5.114;2022-12-13T04:45:02;101291.47;;;-6.78;100.00
59170;BME280;52474;52.236;5.114;2022-12-13T04:47:28;101294.88;;;-6.74;100.00
59170;BME280;52474;52.236;5.114;2022-12-13T04:49:54;101266.59;;;-6.83;100.00
59170;BME280;52474;52.236;5.114;2022-12-13T04:52:20;101294.91;;;-6.79;100.00
59170;BME280;52474;52.236;5.114;2022-12-13T04:54:46;101283.00;;;-6.95;100.00
59170;BME280;52474;52.236;5.114;2022-12-13T04:57:11;101276.13;;;-6.95;100.00
59170;BME280;52474;52.236;5.114;2022-12-13T04:59:38;101273.53;;;-6.95;100.00
59170;BME280;52474;52.236;5.114;2022-12-13T05:02:06;101271.84;;;-6.96;100.00
59170;BME280;52474;52.236;5.114;2022-12-13T05:04:32;101254.75;;;-7.09;100.00
59170;BME280;52474;52.236;5.114;2022-12-13T05:06:58;101266.75;;;-7.06;100.00
59170;BME280;52474;52.236;5.114;2022-12-13T05:09:23;101277.88;;;-7.03;100.00
59170;BME280;52474;52.236;5.114;2022-12-13T05:11:50;101272.66;;;-6.92;100.00
59170;BME280;52474;52.236;5.114;2022-12-13T05:14:15;101262.38;;;-6.92;100.00
59170;BME280;52474;52.236;5.114;2022-12-13T05:16:42;101268.41;;;-6.96;100.00
59170;BME280;52474;52.236;5.114;2022-12-13T05:19:07;101242.78;;;-7.16;100.00
59170;BME280;52474;52.236;5.114;2022-12-13T05:21:33;101243.63;;;-7.11;100.00
59170;BME280;52474;52.236;5.114;2022-12-13T05:24:02;101259.78;;;-6.91;100.00
59170;BME280;52474;52.236;5.114;2022-12-13T05:26:28;101255.50;;;-6.90;100.00
59170;BME280;52474;52.236;5.114;2022-12-13T05:28:57;101240.13;;;-7.04;100.00
59170;BME280;52474;52.236;5.114;2022-12-13T05:31:23;101253.78;;;-6.93;100.00
59170;BME280;52474;52.236;5.114;2022-12-13T05:33:52;101247.91;;;-7.08;100.00
59170;BME280;52474;52.236;5.114;2022-12-13T05:36:18;101259.91;;;-7.07;100.00
59170;BME280;52474;52.236;5.114;2022-12-13T05:38:44;101241.94;;;-7.20;100.00
59170;BME280;52474;52.236;5.114;2022-12-13T05:41:15;101255.63;;;-7.16;100.00
59170;BME280;52474;52.236;5.114;2022-12-13T05:43:42;101236.00;;;-7.31;100.00
59170;BME280;52474;52.236;5.114;2022-12-13T05:46:07;101258.25;;;-7.18;100.00
59170;BME280;52474;52.236;5.114;2022-12-13T05:48:33;101250.53;;;-7.21;100.00
59170;BME280;52474;52.236;5.114;2022-12-13T05:50:58;101235.13;;;-7.25;100.00
59170;BME280;52474;52.236;5.114;2022-12-13T05:53:24;101242.78;;;-7.13;100.00
59170;BME280;52474;52.236;5.114;2022-12-13T05:55:50;101229.09;;;-7.18;100.00
59170;BME280;52474;52.236;5.114;2022-12-13T05:58:16;101232.53;;;-7.24;100.00
59170;BME280;52474;52.236;5.114;2022-12-13T06:00:42;101252.16;;;-7.09;100.00
59170;BME280;52474;52.236;5.114;2022-12-13T06:03:08;101255.63;;;-7.08;100.00
59170;BME280;52474;52.236;5.114;2022-12-13T06:05:34;101256.47;;;-7.08;100.00
59170;BME280;52474;52.236;5.114;2022-12-13T06:07:59;101253.03;;;-7.07;100.00
59170;BME280;52474;52.236;5.114;2022-12-13T06:10:26;101259.81;;;-6.94;100.00
59170;BME280;52474;52.236;5.114;2022-12-13T06:12:52;101239.31;;;-7.06;100.00
59170;BME280;52474;52.236;5.114;2022-12-13T06:15:17;101252.84;;;-6.81;100.00
59170;BME280;52474;52.236;5.114;2022-12-13T06:17:43;101248.53;;;-6.74;100.00
59170;BME280;52474;52.236;5.114;2022-12-13T06:20:09;101248.50;;;-6.73;100.00
59170;BME280;52474;52.236;5.114;2022-12-13T06:22:35;101259.66;;;-6.71;100.00
59170;BME280;52474;52.236;5.114;2022-12-13T06:25:01;101250.16;;;-6.65;100.00
59170;BME280;52474;52.236;5.114;2022-12-13T06:27:27;101254.34;;;-6.52;100.00
59170;BME280;52474;52.236;5.114;2022-12-13T06:29:53;101246.59;;;-6.51;100.00
59170;BME280;52474;52.236;5.114;2022-12-13T06:32:18;101244.91;;;-6.55;100.00
59170;BME280;52474;52.236;5.114;2022-12-13T06:34:44;101254.31;;;-6.49;100.00
59170;BME280;52474;52.236;5.114;2022-12-13T06:37:12;101245.75;;;-6.50;100.00
59170;BME280;52474;52.236;5.114;2022-12-13T06:39:38;101231.22;;;-6.57;100.00
59170;BME280;52474;52.236;5.114;2022-12-13T06:42:06;101243.06;;;-6.40;100.00
59170;BME280;52474;52.236;5.114;2022-12-13T06:44:33;101232.88;;;-6.51;100.00
59170;BME280;52474;52.236;5.114;2022-12-13T06:46:59;101259.41;;;-6.43;100.00
59170;BME280;52474;52.236;5.114;2022-12-13T06:49:25;101240.66;;;-6.60;100.00
59170;BME280;52474;52.236;5.114;2022-12-13T06:51:51;101259.47;;;-6.49;100.00
59170;BME280;52474;52.236;5.114;2022-12-13T06:54:16;101268.94;;;-6.53;100.00
59170;BME280;52474;52.236;5.114;2022-12-13T06:56:42;101265.66;;;-6.68;100.00
59170;BME280;52474;52.236;5.114;2022-12-13T06:59:07;101266.59;;;-6.79;100.00
59170;BME280;52474;52.236;5.114;2022-12-13T07:01:33;101270.09;;;-6.89;100.00
59170;BME280;52474;52.236;5.114;2022-12-13T07:03:59;101270.94;;;-6.92;100.00
59170;BME280;52474;52.236;5.114;2022-12-13T07:06:25;101272.69;;;-6.94;100.00
59170;BME280;52474;52.236;5.114;2022-12-13T07:08:53;101276.09;;;-6.92;100.00
59170;BME280;52474;52.236;5.114;2022-12-13T07:11:21;101266.59;;;-6.83;100.00
59170;BME280;52474;52.236;5.114;2022-12-13T07:13:48;101263.19;;;-6.85;100.00
59170;BME280;52474;52.236;5.114;2022-12-13T07:16:13;101276.88;;;-6.80;100.00
59170;BME280;52474;52.236;5.114;2022-12-13T07:18:40;101274.31;;;-6.80;100.00
59170;BME280;52474;52.236;5.114;2022-12-13T07:21:07;101279.44;;;-6.82;100.00
59170;BME280;52474;52.236;5.114;2022-12-13T07:23:34;101254.63;;;-6.92;100.00
59170;BME280;52474;52.236;5.114;2022-12-13T07:26:00;101249.56;;;-7.04;100.00
59170;BME280;52474;52.236;5.114;2022-12-13T07:28:27;101247.81;;;-6.98;100.00
59170;BME280;52474;52.236;5.114;2022-12-13T07:30:53;101279.50;;;-6.83;100.00
59170;BME280;52474;52.236;5.114;2022-12-13T07:33:19;101278.59;;;-6.82;100.00
59170;BME280;52474;52.236;5.114;2022-12-13T07:35:45;101285.47;;;-6.83;100.00
59170;BME280;52474;52.236;5.114;2022-12-13T07:38:11;101236.66;;;-6.97;100.00
59170;BME280;52474;52.236;5.114;2022-12-13T07:40:38;101279.44;;;-6.77;100.00
59170;BME280;52474;52.236;5.114;2022-12-13T07:43:05;101275.97;;;-6.75;100.00
59170;BME280;52474;52.236;5.114;2022-12-13T07:45:31;101284.56;;;-6.71;100.00
59170;BME280;52474;52.236;5.114;2022-12-13T07:47:58;101282.09;;;-6.86;100.00
59170;BME280;52474;52.236;5.114;2022-12-13T07:50:23;101285.53;;;-6.89;100.00
59170;BME280;52474;52.236;5.114;2022-12-13T07:52:51;101296.66;;;-6.84;100.00
59170;BME280;52474;52.236;5.114;2022-12-13T07:55:17;101286.34;;;-6.87;100.00
59170;BME280;52474;52.236;5.114;2022-12-13T07:57:43;101294.06;;;-6.82;100.00
59170;BME280;52474;52.236;5.114;2022-12-13T08:00:10;101297.47;;;-6.80;100.00
59170;BME280;52474;52.236;5.114;2022-12-13T08:02:40;101300.91;;;-6.80;100.00
59170;BME280;52474;52.236;5.114;2022-12-13T08:05:06;101276.91;;;-6.83;100.00
59170;BME280;52474;52.236;5.114;2022-12-13T08:07:32;101274.25;;;-6.71;100.00
59170;BME280;52474;52.236;5.114;2022-12-13T08:09:58;101294.63;;;-6.43;100.00
59170;BME280;52474;52.236;5.114;2022-12-13T08:12:25;101297.13;;;-6.31;100.00
59170;BME280;52474;52.236;5.114;2022-12-13T08:14:51;101286.81;;;-6.33;100.00
59170;BME280;52474;52.236;5.114;2022-12-13T08:17:16;101308.06;;;-6.05;100.00
59170;BME280;52474;52.236;5.114;2022-12-13T08:19:42;101304.56;;;-5.99;100.00
59170;BME280;52474;52.236;5.114;2022-12-13T08:22:11;101291.00;;;-6.19;100.00
59170;BME280;52474;52.236;5.114;2022-12-13T08:24:38;101308.16;;;-6.18;100.00
59170;BME280;52474;52.236;5.114;2022-12-13T08:27:03;101300.41;;;-6.14;100.00
59170;BME280;52474;52.236;5.114;2022-12-13T08:29:32;101281.63;;;-6.25;100.00
59170;BME280;52474;52.236;5.114;2022-12-13T08:31:58;101287.59;;;-6.23;100.00
59170;BME280;52474;52.236;5.114;2022-12-13T08:34:24;101287.53;;;-6.18;100.00
59170;BME280;52474;52.236;5.114;2022-12-13T08:36:50;101301.16;;;-6.02;100.00
59170;BME280;52474;52.236;5.114;2022-12-13T08:39:16;101310.41;;;-5.86;100.00
59170;BME280;52474;52.236;5.114;2022-12-13T08:41:42;101306.88;;;-5.77;100.00
59170;BME280;52474;52.236;5.114;2022-12-13T08:44:08;101305.88;;;-5.64;100.00
59170;BME280;52474;52.236;5.114;2022-12-13T08:46:34;101303.28;;;-5.64;100.00
59170;BME280;52474;52.236;5.114;2022-12-13T08:48:59;101303.28;;;-5.63;100.00
59170;BME280;52474;52.236;5.114;2022-12-13T08:51:25;101302.94;;;-5.33;100.00
59170;BME280;52474;52.236;5.114;2022-12-13T08:53:51;101296.84;;;-5.29;100.00
59170;BME280;52474;52.236;5.114;2022-12-13T08:56:17;101302.84;;;-5.26;100.00
59170;BME280;52474;52.236;5.114;2022-12-13T08:58:43;101301.16;;;-5.28;100.00
59170;BME280;52474;52.236;5.114;2022-12-13T09:01:09;101286.56;;;-5.31;100.00
59170;BME280;52474;52.236;5.114;2022-12-13T09:03:36;101300.91;;;-5.08;100.00
59170;BME280;52474;52.236;5.114;2022-12-13T09:06:13;101303.38;;;-4.99;100.00
59170;BME280;52474;52.236;5.114;2022-12-13T09:08:40;101302.47;;;-4.97;100.00
59170;BME280;52474;52.236;5.114;2022-12-13T09:11:08;101296.41;;;-4.96;100.00
59170;BME280;52474;52.236;5.114;2022-12-13T09:13:34;101285.28;;;-4.99;100.00
59170;BME280;52474;52.236;5.114;2022-12-13T09:16:07;101301.34;;;-4.79;100.00
59170;BME280;52474;52.236;5.114;2022-12-13T09:18:34;101297.75;;;-4.68;100.00
59170;BME280;52474;52.236;5.114;2022-12-13T09:21:00;101293.34;;;-4.62;100.00
59170;BME280;52474;52.236;5.114;2022-12-13T09:23:29;101301.75;;;-4.47;100.00
59170;BME280;52474;52.236;5.114;2022-12-13T09:25:57;101298.38;;;-4.53;100.00
59170;BME280;52474;52.236;5.114;2022-12-13T09:28:22;101268.66;;;-4.83;100.00
59170;BME280;52474;52.236;5.114;2022-12-13T09:30:49;101285.72;;;-4.69;100.00
59170;BME280;52474;52.236;5.114;2022-12-13T09:33:14;101298.38;;;-4.53;100.00
59170;BME280;52474;52.236;5.114;2022-12-13T09:35:40;101253.81;;;-4.68;100.00
59170;BME280;52474;52.236;5.114;2022-12-13T09:38:06;101272.41;;;-4.46;100.00
59170;BME280;52474;52.236;5.114;2022-12-13T09:40:34;101293.31;;;-4.09;100.00
59170;BME280;52474;52.236;5.114;2022-12-13T09:43:02;101289.75;;;-4.02;100.00
59170;BME280;52474;52.236;5.114;2022-12-13T09:45:28;101297.13;;;-3.80;100.00
59170;BME280;52474;52.236;5.114;2022-12-13T09:47:55;101282.81;;;-3.53;100.00
59170;BME280;52474;52.236;5.114;2022-12-13T09:50:32;101278.78;;;-3.25;100.00
59170;BME280;52474;52.236;5.114;2022-12-13T09:53:00;101277.59;;;-3.10;100.00
59170;BME280;52474;52.236;5.114;2022-12-13T09:55:31;101279.19;;;-3.04;100.00
59170;BME280;52474;52.236;5.114;2022-12-13T09:58:05;101261.25;;;-3.13;100.00
59170;BME280;52474;52.236;5.114;2022-12-13T10:00:33;101275.50;;;-2.95;100.00
59170;BME280;52474;52.236;5.114;2022-12-13T10:02:59;101264.94;;;-2.86;100.00
59170;BME280;52474;52.236;5.114;2022-12-13T10:07:53;101267.78;;;-2.60;100.00
59170;BME280;52474;52.236;5.114;2022-12-13T10:10:19;101244.47;;;-2.61;100.00
59170;BME280;52474;52.236;5.114;2022-12-13T10:12:51;101254.53;;;-2.47;100.00
59170;BME280;52474;52.236;5.114;2022-12-13T10:15:19;101257.63;;;-2.33;100.00
59170;BME280;52474;52.236;5.114;2022-12-13T10:17:47;101264.16;;;-2.18;100.00
59170;BME280;52474;52.236;5.114;2022-12-13T10:20:19;101259.19;;;-1.93;100.00
59170;BME280;52474;52.236;5.114;2022-12-13T10:22:45;101250.56;;;-1.33;100.00
59170;BME280;52474;52.236;5.114;2022-12-13T10:25:11;101240.88;;;1.00;100.00
59170;BME280;52474;52.236;5.114;2022-12-13T10:27:40;101226.84;;;3.03;100.00
59170;BME280;52474;52.236;5.114;2022-12-13T10:30:09;101232.91;;;3.22;100.00
59170;BME280;52474;52.236;5.114;2022-12-13T10:32:58;101214.91;;;3.68;100.00
59170;BME280;52474;52.236;5.114;2022-12-13T10:35:27;101225.88;;;2.48;100.00
59170;BME280;52474;52.236;5.114;2022-12-13T10:37:55;101209.09;;;3.09;100.00
59170;BME280;52474;52.236;5.114;2022-12-13T10:43:18;101220.09;;;4.85;100.00
59170;BME280;52474;52.236;5.114;2022-12-13T10:46:01;101216.25;;;5.23;100.00
59170;BME280;52474;52.236;5.114;2022-12-13T10:48:35;101212.31;;;5.00;100.00
59170;BME280;52474;52.236;5.114;2022-12-13T10:51:04;101210.78;;;2.74;100.00
59170;BME280;52474;52.236;5.114;2022-12-13T10:53:34;101214.44;;;2.89;100.00
59170;BME280;52474;52.236;5.114;2022-12-13T10:56:03;101190.91;;;2.51;100.00
59170;BME280;52474;52.236;5.114;2022-12-13T10:58:40;101205.75;;;2.69;100.00
59170;BME280;52474;52.236;5.114;2022-12-13T11:01:19;101203.00;;;2.72;100.00
59170;BME280;52474;52.236;5.114;2022-12-13T11:03:56;101218.66;;;1.75;100.00
59170;BME280;52474;52.236;5.114;2022-12-13T11:06:24;101211.47;;;0.96;100.00
59170;BME280;52474;52.236;5.114;2022-12-13T11:08:52;101210.69;;;1.37;100.00
59170;BME280;52474;52.236;5.114;2022-12-13T11:11:26;101225.03;;;1.04;100.00
59170;BME280;52474;52.236;5.114;2022-12-13T11:13:55;101216.94;;;1.33;100.00
59170;BME280;52474;52.236;5.114;2022-12-13T11:16:34;101218.16;;;2.07;100.00
59170;BME280;52474;52.236;5.114;2022-12-13T11:19:15;101205.47;;;2.38;100.00
59170;BME280;52474;52.236;5.114;2022-12-13T11:21:49;101211.28;;;1.84;100.00
59170;BME280;52474;52.236;5.114;2022-12-13T11:24:20;101196.81;;;2.56;100.00
59170;BME280;52474;52.236;5.114;2022-12-13T11:26:53;101202.19;;;2.89;100.00
59170;BME280;52474;52.236;5.114;2022-12-13T11:29:50;101207.63;;;3.04;100.00
59170;BME280;52474;52.236;5.114;2022-12-13T11:41:12;101182.44;;;2.84;100.00
59170;BME280;52474;52.236;5.114;2022-12-13T11:43:47;101182.34;;;2.28;100.00
59170;BME280;52474;52.236;5.114;2022-12-13T11:46:19;101175.69;;;1.63;100.00
59170;BME280;52474;52.236;5.114;2022-12-13T11:48:53;101156.84;;;1.96;100.00
59170;BME280;52474;52.236;5.114;2022-12-13T11:51:27;101166.84;;;2.80;100.00
59170;BME280;52474;52.236;5.114;2022-12-13T11:54:00;101166.13;;;2.96;100.00
59170;BME280;52474;52.236;5.114;2022-12-13T11:56:32;101163.84;;;4.10;100.00
59170;BME280;52474;52.236;5.114;2022-12-13T11:59:26;101149.78;;;5.06;100.00
59170;BME280;52474;52.236;5.114;2022-12-13T12:01:53;101156.16;;;4.86;100.00
59170;BME280;52474;52.236;5.114;2022-12-13T12:04:30;101155.25;;;3.91;100.00
59170;BME280;52474;52.236;5.114;2022-12-13T12:09:26;101162.81;;;2.56;100.00
59170;BME280;52474;52.236;5.114;2022-12-13T12:12:00;101156.22;;;2.28;100.00
59170;BME280;52474;52.236;5.114;2022-12-13T12:14:52;101153.53;;;2.11;100.00
59170;BME280;52474;52.236;5.114;2022-12-13T12:17:22;101160.19;;;1.17;100.00
59170;BME280;52474;52.236;5.114;2022-12-13T12:19:54;101167.50;;;1.29;100.00
59170;BME280;52474;52.236;5.114;2022-12-13T12:30:53;101163.72;;;0.94;100.00
59170;BME280;52474;52.236;5.114;2022-12-13T12:39:01;101147.50;;;1.50;100.00
59170;BME280;52474;52.236;5.114;2022-12-13T12:44:13;101156.84;;;1.14;100.00
59170;BME280;52474;52.236;5.114;2022-12-13T12:49:51;101154.94;;;0.53;100.00
59170;BME280;52474;52.236;5.114;2022-12-13T12:55:18;101140.91;;;0.33;100.00
59170;BME280;52474;52.236;5.114;2022-12-13T13:01:28;101136.78;;;0.04;100.00
59170;BME280;52474;52.236;5.114;2022-12-13T13:03:30;101137.28;;;0.37;100.00
59170;BME280;52474;52.236;5.114;2022-12-13T13:10:53;101117.97;;;-0.28;100.00
59170;BME280;52474;52.236;5.114;2022-12-13T13:16:04;101115.88;;;-0.18;100.00
59170;BME280;52474;52.236;5.114;2022-12-13T13:18:50;101115.34;;;-0.51;100.00
59170;BME280;52474;52.236;5.114;2022-12-13T13:24:04;101122.66;;;-0.88;100.00
59170;BME280;52474;52.236;5.114;2022-12-13T13:26:32;101122.09;;;-0.97;100.00
59170;BME280;52474;52.236;5.114;2022-12-13T13:32:02;101132.22;;;-1.15;100.00
59170;BME280;52474;52.236;5.114;2022-12-13T13:34:36;101108.00;;;-1.17;100.00
59170;BME280;52474;52.236;5.114;2022-12-13T13:37:25;101115.22;;;-1.25;100.00
59170;BME280;52474;52.236;5.114;2022-12-13T13:52:20;101089.56;;;-1.62;100.00
59170;BME280;52474;52.236;5.114;2022-12-13T13:55:28;101095.00;;;-1.43;100.00
59170;BME280;52474;52.236;5.114;2022-12-13T13:58:20;101086.03;;;-1.61;100.00
59170;BME280;52474;52.236;5.114;2022-12-13T14:03:50;101099.00;;;-1.60;100.00
59170;BME280;52474;52.236;5.114;2022-12-13T14:06:52;101099.75;;;-1.58;100.00
59170;BME280;52474;52.236;5.114;2022-12-13T14:09:42;101092.03;;;-1.59;100.00
59170;BME280;52474;52.236;5.114;2022-12-13T14:30:43;101082.19;;;-2.06;100.00
59170;BME280;52474;52.236;5.114;2022-12-13T14:33:18;101078.81;;;-2.09;100.00
59170;BME280;52474;52.236;5.114;2022-12-13T14:35:57;101077.25;;;-2.15;100.00